Time;durP1;ratioP1;P1;durP2;ratioP2;P2;SDS_P1;SDS_P2;PMS_P1;PMS_P2;Temp;Humidity;BMP_temperature;BMP_pressure;BME280_temperature;BME280_humidity;BME280_pressure;Samples;Min_cycle;Max_cycle;Signal;HPM_P1;HPM_P2
2022/05/01 00:01:13;;;;;;;15.43;9.43;;;;;;;15.21;49.28;101524.09;5033970;28;20476;-80
2022/05/01 00:03:39;;;;;;;12.68;8.63;;;;;;;15.28;48.81;101524.50;5034440;28;20044;-80
2022/05/01 00:06:08;;;;;;;21.08;9.38;;;;;;;15.24;49.50;101523.03;5033093;28;20026;-80
2022/05/01 00:08:36;;;;;;;16.30;8.25;;;;;;;15.22;49.57;101515.19;5034506;28;20032;-80
2022/05/01 00:11:02;;;;;;;12.70;8.27;;;;;;;15.29;49.42;101520.06;5034473;28;20383;-80
2022/05/01 00:13:29;;;;;;;10.50;7.85;;;;;;;15.28;49.31;101513.91;5034107;28;20491;-80
2022/05/01 00:15:54;;;;;;;13.27;8.50;;;;;;;15.20;49.73;101521.56;5032230;28;20384;-80
2022/05/01 00:18:20;;;;;;;13.57;8.30;;;;;;;15.27;49.54;101507.78;5034271;28;20029;-80
2022/05/01 00:20:46;;;;;;;13.73;8.15;;;;;;;15.29;50.04;101510.34;5034433;28;20025;-80
2022/05/01 00:23:12;;;;;;;9.82;7.88;;;;;;;15.26;49.43;101506.13;5033624;28;20033;-80
2022/05/01 00:25:40;;;;;;;10.30;7.97;;;;;;;15.27;49.79;101502.50;5034142;28;20117;-80
2022/05/01 00:28:05;;;;;;;14.18;8.18;;;;;;;15.14;50.05;101501.66;5033994;28;20018;-80
2022/05/01 00:30:31;;;;;;;14.88;8.43;;;;;;;15.15;50.13;101499.88;5033478;28;20083;-80
2022/05/01 00:38:24;;;;;;;11.10;7.55;;;;;;;15.04;51.40;101497.97;5014008;28;20044;-80
2022/05/01 00:40:50;;;;;;;14.27;8.35;;;;;;;15.04;51.59;101490.88;5013854;28;20108;-81
2022/05/01 00:43:16;;;;;;;12.32;8.02;;;;;;;15.11;51.35;101495.75;5012668;28;20132;-80
2022/05/01 00:45:42;;;;;;;13.13;8.77;;;;;;;15.10;51.66;101491.41;5027676;28;20120;-80
2022/05/01 00:48:08;;;;;;;14.55;9.57;;;;;;;14.95;52.25;101493.31;5033383;28;20021;-80
2022/05/01 00:50:33;;;;;;;18.10;9.43;;;;;;;15.04;52.30;101490.88;5033166;28;20214;-80
2022/05/01 00:53:00;;;;;;;13.85;9.20;;;;;;;15.04;52.45;101485.56;5033609;28;20039;-80
2022/05/01 00:55:26;;;;;;;13.63;8.98;;;;;;;15.16;52.02;101485.69;5033549;28;20095;-80
2022/05/01 00:57:52;;;;;;;18.15;9.45;;;;;;;15.15;51.92;101481.38;5033304;28;20471;-80
2022/05/01 01:00:18;;;;;;;21.02;8.95;;;;;;;14.91;52.98;101490.06;5030351;28;20032;-80
2022/05/01 01:02:47;;;;;;;12.20;8.40;;;;;;;14.84;53.13;101483.47;5033102;28;20042;-80
2022/05/01 01:05:13;;;;;;;14.32;8.32;;;;;;;14.82;53.32;101482.75;5033487;28;20092;-80
2022/05/01 01:07:39;;;;;;;15.55;9.07;;;;;;;14.81;53.26;101484.53;5032805;28;20021;-80
2022/05/01 01:10:06;;;;;;;11.52;8.85;;;;;;;14.74;53.82;101480.63;5033258;28;20029;-80
2022/05/01 01:15:15;;;;;;;12.13;8.77;;;;;;;15.15;52.77;101470.78;5033277;28;20084;-81
2022/05/01 01:20:17;;;;;;;12.38;8.52;;;;;;;15.11;52.59;101472.78;5032442;28;20057;-80
2022/05/01 01:22:47;;;;;;;11.73;7.72;;;;;;;15.13;52.72;101470.03;5025184;28;20480;-80
2022/05/01 01:25:13;;;;;;;13.13;8.20;;;;;;;15.15;52.70;101470.78;5013384;28;20034;-80
2022/05/01 01:27:42;;;;;;;12.45;9.38;;;;;;;15.15;52.73;101461.03;5013040;28;20030;-80
2022/05/01 01:32:53;;;;;;;13.75;8.55;;;;;;;14.99;52.82;101461.28;5032471;28;20095;-80
2022/05/01 01:35:21;;;;;;;15.32;8.75;;;;;;;15.01;52.71;101458.53;5032659;28;20029;-80
2022/05/01 01:37:48;;;;;;;14.10;9.23;;;;;;;15.05;52.54;101460.84;5031362;28;20029;-80
2022/05/01 01:40:22;;;;;;;12.45;8.70;;;;;;;15.13;52.86;101459.47;5032459;28;20030;-80
2022/05/01 01:42:50;;;;;;;12.82;8.20;;;;;;;15.13;52.17;101456.81;5032350;28;20033;-80
2022/05/01 01:45:17;;;;;;;13.15;8.60;;;;;;;14.90;52.90;101456.63;5021443;28;20084;-80
2022/05/01 01:47:49;;;;;;;12.32;9.05;;;;;;;14.97;52.27;101451.72;5012985;28;20022;-80
2022/05/01 01:50:16;;;;;;;12.90;7.97;;;;;;;15.05;51.95;101454.72;5028747;28;20467;-80
2022/05/01 01:52:49;;;;;;;12.18;8.48;;;;;;;15.11;52.01;101446.34;5029666;28;20028;-80
2022/05/01 01:55:16;;;;;;;14.27;9.90;;;;;;;15.04;52.03;101437.97;5032384;28;20056;-80
2022/05/01 01:57:43;;;;;;;12.15;8.40;;;;;;;15.07;52.12;101437.78;5032425;28;20440;-80
2022/05/01 02:00:09;;;;;;;15.82;9.02;;;;;;;15.06;52.21;101430.78;5031515;28;20043;-80
2022/05/01 02:02:35;;;;;;;18.95;10.57;;;;;;;15.02;52.55;101431.94;5032151;28;20033;-80
2022/05/01 02:05:00;;;;;;;13.27;8.75;;;;;;;15.11;52.66;101425.19;5030728;28;20036;-80
2022/05/01 02:07:28;;;;;;;13.20;8.85;;;;;;;15.08;52.74;101426.22;5032359;28;20021;-80
2022/05/01 02:09:53;;;;;;;14.85;9.35;;;;;;;15.13;52.60;101417.97;5030528;28;20029;-80
2022/05/01 02:12:20;;;;;;;15.18;9.27;;;;;;;15.13;52.37;101417.97;5025975;28;20033;-80
2022/05/01 02:14:45;;;;;;;12.18;9.00;;;;;;;15.04;52.51;101411.53;5012449;28;20123;-80
2022/05/01 02:17:10;;;;;;;13.25;9.07;;;;;;;15.05;52.88;101410.59;5020739;28;20102;-80
2022/05/01 02:19:36;;;;;;;17.60;10.38;;;;;;;14.95;52.60;101406.91;5031362;28;20454;-80
2022/05/01 02:22:01;;;;;;;14.63;9.43;;;;;;;15.06;53.01;101403.47;5031982;28;20474;-80
2022/05/01 02:24:29;;;;;;;15.20;9.57;;;;;;;14.91;53.21;101405.44;5032007;28;20025;-80
2022/05/01 02:26:55;;;;;;;16.92;10.23;;;;;;;14.94;53.25;101399.91;5031944;28;20053;-80
2022/05/01 02:29:20;;;;;;;12.23;9.38;;;;;;;14.91;53.71;101404.56;5030262;28;20076;-80
2022/05/01 02:31:46;;;;;;;13.80;9.80;;;;;;;14.84;53.65;101409.44;5024674;28;20033;-80
2022/05/01 02:34:12;;;;;;;16.55;10.18;;;;;;;14.79;54.17;101406.25;5012176;28;20084;-80
2022/05/01 02:36:38;;;;;;;19.45;10.18;;;;;;;14.80;53.89;101402.69;5012151;28;20034;-80
2022/05/01 02:39:05;;;;;;;15.15;10.95;;;;;;;14.76;54.11;101402.06;5019371;28;20022;-80
2022/05/01 02:41:31;;;;;;;15.77;10.20;;;;;;;14.68;54.82;101404.38;5030114;28;20041;-80
2022/05/01 02:43:58;;;;;;;18.13;10.23;;;;;;;14.50;54.82;101401.19;5019454;28;20160;-80
2022/05/01 02:46:26;;;;;;;15.52;10.10;;;;;;;14.64;54.82;101397.63;5012444;28;20120;-80
2022/05/01 02:48:52;;;;;;;17.80;10.68;;;;;;;14.60;54.96;101390.84;5017467;28;20029;-80
2022/05/01 02:51:17;;;;;;;17.00;10.88;;;;;;;14.72;54.70;101379.44;5030747;28;20522;-79
2022/05/01 02:53:43;;;;;;;15.40;10.90;;;;;;;14.74;54.55;101382.81;5031498;28;20018;-80
2022/05/01 02:56:09;;;;;;;16.00;10.63;;;;;;;14.75;54.82;101384.50;5031564;28;20103;-80
2022/05/01 02:58:34;;;;;;;19.58;11.52;;;;;;;14.73;55.15;101382.91;5031383;28;20029;-80
2022/05/01 03:01:00;;;;;;;17.63;12.13;;;;;;;14.50;55.97;101384.50;5030686;28;20049;-80
2022/05/01 03:03:26;;;;;;;16.77;10.77;;;;;;;14.64;55.52;101387.88;5032431;28;20060;-80
2022/05/01 03:05:52;;;;;;;14.43;10.90;;;;;;;14.61;55.43;101376.69;5034025;28;20056;-80
2022/05/01 03:08:18;;;;;;;16.42;10.98;;;;;;;14.54;56.09;101386.81;5035706;28;20095;-80
2022/05/01 03:10:43;;;;;;;16.55;10.50;;;;;;;14.67;55.91;101382.41;5033679;28;20480;-80
2022/05/01 03:13:09;;;;;;;17.02;11.73;;;;;;;14.68;56.16;101381.44;5032852;28;20468;-80
2022/05/01 03:15:35;;;;;;;20.33;12.70;;;;;;;14.76;55.24;101380.06;5035288;28;20021;-80
2022/05/01 03:23:28;;;;;;;20.02;11.32;;;;;;;14.70;55.52;101369.91;5035158;28;20033;-80
2022/05/01 03:25:53;;;;;;;22.83;10.77;;;;;;;14.67;55.48;101370.97;5034519;28;20392;-80
2022/05/01 03:28:18;;;;;;;17.65;12.25;;;;;;;14.76;55.18;101374.78;5035521;28;20036;-80
2022/05/01 03:30:44;;;;;;;15.88;11.15;;;;;;;14.78;55.59;101371.06;5034596;28;20104;-80
2022/05/01 03:33:10;;;;;;;17.77;12.13;;;;;;;14.76;55.68;101369.50;5035087;28;20112;-80
2022/05/01 03:35:36;;;;;;;19.63;12.43;;;;;;;14.78;55.50;101365.78;5034997;28;20105;-80
2022/05/01 03:38:06;;;;;;;18.08;12.40;;;;;;;14.72;55.65;101368.00;5035069;28;20458;-80
2022/05/01 03:40:35;;;;;;;17.70;11.20;;;;;;;14.74;55.98;101369.59;5027291;28;20025;-80
2022/05/01 03:43:02;;;;;;;20.85;12.07;;;;;;;14.72;55.66;101362.72;5014965;28;20455;-80
2022/05/01 03:45:28;;;;;;;16.63;11.70;;;;;;;14.71;55.79;101363.66;5015060;28;20105;-80
2022/05/01 03:47:53;;;;;;;15.70;10.88;;;;;;;14.73;55.55;101364.41;5015033;28;20079;-80
2022/05/01 03:52:34;;;;;;;19.23;12.93;;;;;;;14.59;56.50;101363.59;5069090;28;20384;-82
2022/05/01 03:54:59;;;;;;;19.23;11.70;;;;;;;14.78;55.73;101363.13;5068945;28;20047;-82
2022/05/01 03:57:25;;;;;;;15.02;11.40;;;;;;;14.91;55.60;101357.84;5069122;28;20036;-81
2022/05/01 03:59:50;;;;;;;19.27;11.30;;;;;;;14.82;55.61;101348.72;5067283;28;20029;-80
2022/05/01 04:02:16;;;;;;;17.70;12.48;;;;;;;14.76;56.68;101351.81;5056650;28;20119;-80
2022/05/01 04:04:45;;;;;;;20.48;11.95;;;;;;;14.79;56.67;101348.09;5068836;28;20539;-80
2022/05/01 04:07:11;;;;;;;21.38;12.27;;;;;;;14.61;56.96;101345.81;5056217;28;20028;-80
2022/05/01 04:09:37;;;;;;;17.80;12.27;;;;;;;14.65;57.21;101351.72;5049948;28;20033;-80
2022/05/01 04:12:04;;;;;;;15.07;11.55;;;;;;;14.67;57.18;101344.53;5063597;28;20086;-80
2022/05/01 04:14:30;;;;;;;18.00;13.10;;;;;;;14.54;58.06;101344.53;5048758;28;20025;-80
2022/05/01 04:16:58;;;;;;;14.68;11.18;;;;;;;14.61;57.72;101335.25;5048800;28;20048;-80
2022/05/01 04:19:24;;;;;;;21.58;12.55;;;;;;;14.67;58.16;101339.25;5057566;28;20021;-80
2022/05/01 04:21:49;;;;;;;18.60;12.35;;;;;;;14.60;58.44;101336.19;5068303;28;20073;-80
2022/05/01 04:24:15;;;;;;;18.48;12.43;;;;;;;14.64;58.83;101335.03;5063475;28;20025;-80
2022/05/01 04:26:40;;;;;;;19.00;12.95;;;;;;;14.68;58.28;101323.28;5052051;28;20163;-81
2022/05/01 04:31:49;;;;;;;16.08;10.85;;;;;;;14.63;58.90;101325.41;5051815;28;20037;-81
2022/05/01 04:34:14;;;;;;;16.73;11.48;;;;;;;14.72;59.09;101331.00;5059549;28;20033;-82
2022/05/01 04:36:41;;;;;;;16.48;11.25;;;;;;;14.70;59.35;101323.19;5049427;28;20021;-82
2022/05/01 04:39:06;;;;;;;18.85;12.45;;;;;;;14.63;59.27;101322.78;5066517;28;20032;-80
2022/05/01 04:41:32;;;;;;;17.63;12.50;;;;;;;14.47;59.88;101327.41;5064549;28;20482;-80
2022/05/01 04:43:57;;;;;;;18.60;12.90;;;;;;;14.51;60.05;101317.47;5068296;28;20468;-80
2022/05/01 04:46:22;;;;;;;21.73;12.25;;;;;;;14.41;60.15;101317.25;5066996;28;20020;-80
2022/05/01 04:48:48;;;;;;;16.55;12.10;;;;;;;14.47;59.94;101322.09;5068237;28;20074;-82
2022/05/01 04:51:13;;;;;;;14.00;11.68;;;;;;;14.48;60.27;101315.88;5067676;28;20036;-80
2022/05/01 04:53:38;;;;;;;21.08;12.18;;;;;;;14.46;60.28;101318.63;5063254;28;20029;-80
2022/05/01 04:58:48;;;;;;;18.88;12.85;;;;;;;14.49;61.33;101314.91;5048733;28;20557;-79
2022/05/01 05:01:15;;;;;;;16.92;12.93;;;;;;;14.55;61.21;101329.50;5066209;28;20042;-80
2022/05/01 05:03:40;;;;;;;24.38;14.35;;;;;;;14.39;61.71;101325.28;5052467;28;20104;-80
2022/05/01 05:06:05;;;;;;;18.20;13.38;;;;;;;14.39;61.83;101327.09;5044599;28;20100;-80
2022/05/01 05:11:22;;;;;;;22.65;14.50;;;;;;;14.35;62.75;101321.16;5033470;28;20046;-80
2022/05/01 05:13:48;;;;;;;20.50;14.15;;;;;;;14.45;62.43;101324.00;5063071;28;20364;-79
2022/05/01 05:16:13;;;;;;;23.40;14.77;;;;;;;14.30;62.64;101320.66;5059456;28;20040;-81
2022/05/01 05:18:41;;;;;;;22.30;14.68;;;;;;;14.46;62.29;101320.44;5034336;28;20022;-81
2022/05/01 05:21:07;;;;;;;23.63;14.95;;;;;;;14.27;62.84;101331.41;5046142;28;20029;-80
2022/05/01 05:23:32;;;;;;;21.23;14.63;;;;;;;14.11;63.04;101331.63;5054213;28;20025;-80
2022/05/01 05:25:58;;;;;;;22.17;14.93;;;;;;;14.22;63.89;101329.09;5054283;28;20084;-80
2022/05/01 05:28:23;;;;;;;25.05;15.32;;;;;;;14.26;62.77;101335.03;5054238;28;20032;-80
2022/05/01 05:30:49;;;;;;;20.75;14.90;;;;;;;14.17;62.98;101336.47;5041752;28;20502;-80
2022/05/01 05:33:15;;;;;;;21.40;14.13;;;;;;;14.33;63.39;101340.72;5034558;28;20117;-80
2022/05/01 05:35:41;;;;;;;21.85;16.27;;;;;;;14.36;63.44;101335.25;5034147;28;20025;-80
2022/05/01 05:38:07;;;;;;;23.08;14.85;;;;;;;14.37;63.52;101342.19;5034025;28;20059;-80
2022/05/01 05:40:32;;;;;;;18.98;13.98;;;;;;;14.42;63.20;101340.09;5033946;28;20041;-80
2022/05/01 05:42:57;;;;;;;20.75;14.93;;;;;;;14.31;64.01;101346.09;5034092;28;20101;-80
2022/05/01 05:45:23;;;;;;;20.48;15.00;;;;;;;14.40;63.44;101342.84;5042726;28;20066;-80
2022/05/01 05:47:48;;;;;;;24.48;15.52;;;;;;;14.34;63.42;101347.72;5053649;28;20025;-80
2022/05/01 05:50:14;;;;;;;20.63;14.63;;;;;;;14.45;63.79;101346.03;5048146;28;20033;-80
2022/05/01 05:52:39;;;;;;;23.30;15.68;;;;;;;14.35;63.90;101344.94;5034389;28;20041;-79
2022/05/01 05:55:05;;;;;;;23.35;15.38;;;;;;;14.47;63.88;101344.13;5053562;28;20021;-80
2022/05/01 05:57:31;;;;;;;22.40;14.30;;;;;;;14.48;64.07;101344.94;5053762;28;20021;-80
2022/05/01 05:59:56;;;;;;;25.45;15.80;;;;;;;14.49;63.85;101351.91;5045900;28;20062;-80
2022/05/01 06:02:21;;;;;;;19.95;14.57;;;;;;;14.64;64.27;101345.59;5045680;28;20043;-80
2022/05/01 06:04:47;;;;;;;21.52;15.30;;;;;;;14.75;63.84;101350.16;5053390;28;20028;-80
2022/05/01 06:07:12;;;;;;;24.65;15.10;;;;;;;14.83;63.62;101349.56;5052516;28;20112;-80
2022/05/01 06:09:38;;;;;;;21.35;15.23;;;;;;;14.85;63.29;101347.69;5053333;28;20044;-80
2022/05/01 06:12:03;;;;;;;23.20;14.98;;;;;;;14.82;63.74;101347.91;5053103;28;20025;-80
2022/05/01 06:14:29;;;;;;;20.42;14.05;;;;;;;14.89;63.35;101343.88;5051417;28;20029;-80
2022/05/01 06:16:54;;;;;;;21.63;16.08;;;;;;;14.86;63.43;101347.56;5033430;28;20033;-80
2022/05/01 06:19:19;;;;;;;20.35;15.38;;;;;;;14.86;63.83;101347.56;5033237;28;20030;-80
2022/05/01 06:21:45;;;;;;;23.67;16.40;;;;;;;14.93;63.65;101353.28;5037415;28;20029;-80
2022/05/01 06:24:10;;;;;;;20.27;13.95;;;;;;;14.95;63.16;101348.72;5053090;28;20063;-80
2022/05/01 06:26:35;;;;;;;21.35;14.30;;;;;;;15.00;63.15;101349.22;5051009;28;20029;-80
2022/05/01 06:29:01;;;;;;;20.35;14.20;;;;;;;14.80;63.36;101352.44;5033064;28;20029;-80
2022/05/01 06:31:27;;;;;;;23.77;13.40;;;;;;;14.93;62.94;101353.28;5032849;28;20025;-79
2022/05/01 06:33:54;;;;;;;18.58;13.63;;;;;;;15.01;63.14;101356.22;5032919;28;20018;-80
2022/05/01 06:36:19;;;;;;;19.02;13.20;;;;;;;15.05;62.54;101356.84;5034988;28;20051;-80
2022/05/01 06:38:47;;;;;;;25.85;14.18;;;;;;;15.18;62.46;101354.16;5052290;28;20459;-80
2022/05/01 06:41:12;;;;;;;20.05;14.63;;;;;;;15.11;62.52;101352.91;5047998;28;20116;-80
2022/05/01 06:43:38;;;;;;;21.83;14.60;;;;;;;14.96;62.43;101350.41;5037760;28;20104;-80
2022/05/01 06:46:04;;;;;;;18.80;14.80;;;;;;;15.18;62.50;101357.63;5031945;28;20275;-80
2022/05/01 06:48:30;;;;;;;18.33;13.77;;;;;;;15.22;62.36;101355.63;5032470;28;20099;-80
2022/05/01 06:50:55;;;;;;;22.17;15.13;;;;;;;15.19;62.65;101355.84;5031754;28;20037;-80
2022/05/01 06:53:21;;;;;;;23.90;14.48;;;;;;;15.11;62.81;101360.84;5031378;28;20036;-80
2022/05/01 06:55:46;;;;;;;20.33;14.35;;;;;;;15.32;63.12;101350.50;5031584;28;20026;-80
2022/05/01 06:58:11;;;;;;;17.95;14.60;;;;;;;15.37;62.48;101354.50;5032128;28;20032;-81
2022/05/01 07:00:37;;;;;;;17.67;14.18;;;;;;;15.52;62.53;101356.97;5031182;28;20029;-78
2022/05/01 07:03:02;;;;;;;17.20;14.00;;;;;;;15.52;62.11;101349.03;5043389;28;20349;-77
2022/05/01 07:05:28;;;;;;;19.60;14.48;;;;;;;15.50;61.97;101349.16;5041960;28;20036;-79
2022/05/01 07:07:54;;;;;;;19.58;13.73;;;;;;;15.58;62.51;101354.75;5035336;28;20026;-78
2022/05/01 07:10:21;;;;;;;19.58;13.30;;;;;;;15.69;61.95;101348.63;5039549;28;20037;-78
2022/05/01 07:12:47;;;;;;;21.38;14.10;;;;;;;15.94;61.75;101357.44;5030601;28;20033;-80
2022/05/01 07:15:12;;;;;;;18.95;13.13;;;;;;;16.11;61.39;101350.84;5037712;28;20384;-78
2022/05/01 07:17:38;;;;;;;17.10;12.35;;;;;;;16.22;60.96;101350.88;5031053;28;20032;-77
2022/05/01 07:20:04;;;;;;;13.85;10.88;;;;;;;16.42;60.89;101349.31;5031378;28;20044;-80
2022/05/01 07:22:30;;;;;;;18.67;12.07;;;;;;;16.40;59.80;101353.91;5037292;28;20111;-77
2022/05/01 07:24:56;;;;;;;15.90;11.80;;;;;;;16.43;59.61;101349.22;5050256;28;20047;-77
2022/05/01 07:27:22;;;;;;;16.45;11.70;;;;;;;16.55;59.19;101344.75;5038002;28;20033;-77
2022/05/01 07:29:47;;;;;;;18.13;12.25;;;;;;;16.49;57.91;101339.94;5048298;28;20028;-77
2022/05/01 07:32:12;;;;;;;15.40;11.57;;;;;;;16.44;58.82;101340.28;5031311;28;20430;-77
2022/05/01 07:34:38;;;;;;;16.50;11.60;;;;;;;16.44;58.30;101344.75;5034481;28;20025;-82
2022/05/01 07:37:04;;;;;;;14.52;10.65;;;;;;;16.44;58.20;101334.16;5034366;28;20507;-78
2022/05/01 07:39:30;;;;;;;14.23;10.45;;;;;;;16.43;57.76;101335.13;5032258;28;20022;-78
2022/05/01 07:41:55;;;;;;;13.48;11.07;;;;;;;16.33;58.27;101342.94;5030994;28;20025;-78
2022/05/01 07:44:21;;;;;;;13.38;10.43;;;;;;;16.15;58.95;101339.03;5031073;28;20022;-78
2022/05/01 07:46:46;;;;;;;12.38;9.88;;;;;;;16.02;58.63;101347.94;5031699;28;20442;-79
2022/05/01 07:49:12;;;;;;;11.32;8.25;;;;;;;15.98;58.74;101348.28;5041122;28;20025;-79
2022/05/01 07:51:37;;;;;;;12.45;7.80;;;;;;;16.00;57.96;101351.66;5048919;28;20116;-79
2022/05/01 07:54:04;;;;;;;8.68;6.75;;;;;;;15.91;57.87;101355.84;5037816;28;20104;-79
2022/05/01 07:56:31;;;;;;;9.77;7.00;;;;;;;15.96;56.65;101347.56;5030812;28;20025;-79
2022/05/01 07:58:56;;;;;;;10.43;5.80;;;;;;;16.06;57.50;101349.38;5030560;28;20028;-79
2022/05/01 08:01:22;;;;;;;8.68;7.30;;;;;;;16.12;56.88;101353.38;5030710;28;20022;-79
2022/05/01 08:06:33;;;;;;;9.20;6.20;;;;;;;16.15;56.72;101352.28;5031482;28;20040;-79
2022/05/01 08:08:58;;;;;;;8.98;6.03;;;;;;;16.19;56.01;101345.78;5038668;28;20029;-79
2022/05/01 08:11:24;;;;;;;9.10;5.40;;;;;;;16.31;56.39;101350.16;5037555;28;20028;-79
2022/05/01 08:13:50;;;;;;;11.57;6.38;;;;;;;16.35;56.42;101348.97;5034111;28;20017;-79
2022/05/01 08:16:17;;;;;;;8.50;5.85;;;;;;;16.45;55.11;101346.44;5030900;28;20025;-80
2022/05/01 08:21:28;;;;;;;7.63;5.97;;;;;;;16.43;56.11;101343.06;5035189;28;20048;-80
2022/05/01 08:23:54;;;;;;;8.88;5.85;;;;;;;16.50;55.86;101338.97;5038335;28;20336;-80
2022/05/01 08:26:21;;;;;;;10.57;6.53;;;;;;;16.44;55.35;101339.44;5037328;28;20083;-80
2022/05/01 08:28:46;;;;;;;8.70;6.13;;;;;;;16.62;55.96;101338.00;5041931;28;20525;-80
2022/05/01 08:31:11;;;;;;;11.15;6.93;;;;;;;16.58;55.42;101339.19;5055531;28;20116;-80
2022/05/01 08:33:37;;;;;;;13.50;8.00;;;;;;;16.36;55.65;101344.50;5030426;28;20022;-80
2022/05/01 08:36:05;;;;;;;10.52;7.32;;;;;;;16.47;56.08;101341.88;5030511;28;20467;-80
2022/05/01 08:38:31;;;;;;;10.65;7.93;;;;;;;16.49;56.80;101337.28;5032478;28;20022;-80
2022/05/01 08:40:57;;;;;;;9.65;7.10;;;;;;;16.71;57.19;101344.41;5034666;28;20046;-80
2022/05/01 08:43:24;;;;;;;13.52;9.43;;;;;;;16.24;57.35;101347.13;5034185;28;20108;-80
2022/05/01 08:45:52;;;;;;;14.68;8.38;;;;;;;16.72;56.87;101342.59;5034186;28;20403;-80
2022/05/01 08:48:32;;;;;;;13.32;9.68;;;;;;;16.64;57.05;101341.38;5046477;28;20025;-80
2022/05/01 08:51:01;;;;;;;10.27;7.60;;;;;;;16.74;57.43;101346.78;5049751;28;20437;-80
2022/05/01 08:53:28;;;;;;;12.50;8.48;;;;;;;16.57;56.83;101345.50;5049851;28;20140;-79
2022/05/01 08:55:55;;;;;;;10.95;8.07;;;;;;;16.50;58.17;101338.13;5038565;28;20029;-80
2022/05/01 08:58:21;;;;;;;13.00;8.85;;;;;;;16.62;58.87;101348.59;5052733;28;20025;-81
2022/05/01 09:00:49;;;;;;;13.18;9.43;;;;;;;16.30;58.90;101352.94;5050089;28;20029;-81
2022/05/01 09:03:16;;;;;;;11.23;9.20;;;;;;;16.34;59.11;101349.09;5037065;28;20399;-79
2022/05/01 09:05:41;;;;;;;14.73;10.07;;;;;;;16.44;58.46;101344.75;5036374;28;20032;-80
2022/05/01 09:08:07;;;;;;;8.65;7.75;;;;;;;16.56;58.00;101346.44;5034375;28;20399;-79
2022/05/01 09:10:33;;;;;;;10.60;9.45;;;;;;;16.66;57.15;101350.03;5038133;28;20060;-79
2022/05/01 09:12:58;;;;;;;13.75;9.73;;;;;;;16.39;58.10;101349.56;5034170;28;20036;-80
2022/05/01 09:15:36;;;;;;;10.38;8.07;;;;;;;16.58;57.30;101341.03;5045571;28;20033;-80
2022/05/01 09:18:03;;;;;;;10.10;8.25;;;;;;;16.57;57.79;101342.84;5035194;28;20386;-80
2022/05/01 09:20:29;;;;;;;12.88;8.93;;;;;;;16.52;57.27;101344.16;5036567;28;20486;-80
2022/05/01 09:22:57;;;;;;;13.80;9.52;;;;;;;16.65;57.02;101340.41;5052953;28;20033;-79
2022/05/01 09:25:23;;;;;;;12.60;9.00;;;;;;;16.72;57.48;101345.25;5052328;28;20029;-81
2022/05/01 09:27:52;;;;;;;11.85;9.07;;;;;;;16.72;57.50;101345.25;5034944;28;20049;-80
2022/05/01 09:30:22;;;;;;;14.18;9.55;;;;;;;16.41;57.91;101343.19;5039027;28;20064;-80
2022/05/01 09:32:49;;;;;;;10.70;8.30;;;;;;;16.64;57.62;101346.66;5055674;28;20158;-81
2022/05/01 09:35:26;;;;;;;13.32;8.63;;;;;;;16.96;57.21;101343.34;5062676;28;20115;-81
2022/05/01 09:38:18;;;;;;;12.48;9.52;;;;;;;16.92;56.48;101344.50;5051776;28;20113;-81
2022/05/01 09:41:08;;;;;;;11.48;8.15;;;;;;;16.75;56.83;101342.34;5039393;28;20029;-81
2022/05/01 09:43:34;;;;;;;14.18;9.35;;;;;;;16.88;57.04;101348.38;5046632;28;20033;-81
2022/05/01 09:46:25;;;;;;;14.00;9.13;;;;;;;17.17;57.11;101340.75;5048008;28;20059;-81
2022/05/01 09:48:59;;;;;;;12.77;9.05;;;;;;;17.23;57.17;101336.75;5047219;28;20029;-81
2022/05/01 09:51:26;;;;;;;12.90;9.57;;;;;;;17.00;57.71;101342.13;5043422;28;20069;-81
2022/05/01 09:53:52;;;;;;;10.50;8.00;;;;;;;16.81;57.46;101336.56;5042437;28;20364;-81
2022/05/01 09:56:18;;;;;;;16.25;10.15;;;;;;;16.80;57.12;101335.69;5028867;28;20048;-81
2022/05/01 09:58:44;;;;;;;15.40;9.05;;;;;;;16.85;55.23;101327.41;5033324;28;20025;-81
2022/05/01 10:01:14;;;;;;;14.38;9.05;;;;;;;17.08;55.35;101337.97;5047618;28;20029;-81
2022/05/01 10:03:46;;;;;;;12.98;8.98;;;;;;;16.84;55.73;101336.34;5041436;28;20040;-80
2022/05/01 10:06:13;;;;;;;12.55;8.32;;;;;;;17.10;54.61;101328.97;5040412;28;20053;-80
2022/05/01 10:08:40;;;;;;;15.50;8.98;;;;;;;16.90;56.17;101329.69;5029930;28;20640;-80
2022/05/01 10:11:05;;;;;;;11.27;7.95;;;;;;;16.92;56.76;101333.06;5044246;28;20119;-80
2022/05/01 10:13:33;;;;;;;14.70;9.10;;;;;;;16.73;57.75;101328.38;5033887;28;20028;-81
2022/05/01 10:16:00;;;;;;;12.25;9.32;;;;;;;17.12;55.53;101328.81;5041041;28;20550;-81
2022/05/01 10:18:25;;;;;;;14.48;9.93;;;;;;;16.81;56.09;101328.59;5044336;28;20187;-81
2022/05/01 10:20:52;;;;;;;11.93;9.32;;;;;;;16.80;56.63;101326.91;5045069;28;20680;-80
2022/05/01 10:23:18;;;;;;;11.27;8.60;;;;;;;16.97;56.30;101326.44;5043425;28;20025;-80
2022/05/01 10:26:06;;;;;;;10.48;8.50;;;;;;;16.59;57.30;101322.34;5043060;28;20501;-80
2022/05/01 10:28:56;;;;;;;10.52;8.20;;;;;;;17.05;54.32;101323.16;5048019;28;20372;-80
2022/05/01 10:32:23;;;;;;;9.88;7.82;;;;;;;17.10;56.51;101325.44;5047775;28;20040;-80
2022/05/01 10:35:07;;;;;;;12.90;8.98;;;;;;;16.71;56.85;101319.69;5029555;28;20128;-80
2022/05/01 10:37:35;;;;;;;10.13;7.63;;;;;;;16.62;56.85;101314.13;5028691;28;20546;-80
2022/05/01 10:40:01;;;;;;;9.93;8.00;;;;;;;16.61;58.00;101315.13;5045585;28;20036;-80
2022/05/01 10:42:34;;;;;;;16.50;8.68;;;;;;;16.87;57.40;101314.88;5046099;28;20079;-80
2022/05/01 10:45:00;;;;;;;11.52;8.82;;;;;;;16.82;57.14;101311.75;5049043;28;20025;-79
2022/05/01 10:47:37;;;;;;;14.20;8.52;;;;;;;16.93;56.36;101309.06;5040199;28;20022;-80
2022/05/01 10:50:08;;;;;;;13.63;9.57;;;;;;;17.16;55.40;101314.31;5034473;28;20040;-80
2022/05/01 10:52:34;;;;;;;11.30;8.73;;;;;;;16.90;55.12;101303.16;5041820;28;20034;-80
2022/05/01 10:55:04;;;;;;;11.32;7.68;;;;;;;17.02;55.13;101303.03;5041049;28;20033;-80
2022/05/01 10:57:30;;;;;;;11.38;8.45;;;;;;;16.98;54.78;101298.94;5039279;28;20030;-80
2022/05/01 11:00:08;;;;;;;10.38;8.05;;;;;;;17.04;55.65;101293.16;5032027;28;20035;-80
2022/05/01 11:02:45;;;;;;;10.95;8.25;;;;;;;17.03;56.19;101301.22;5032406;28;20037;-80
2022/05/01 11:05:31;;;;;;;10.73;7.65;;;;;;;17.04;53.80;101297.59;5032589;28;20079;-80
2022/05/01 11:07:57;;;;;;;10.60;8.23;;;;;;;16.98;55.71;101295.44;5035937;28;20025;-80
2022/05/01 11:10:26;;;;;;;11.20;8.05;;;;;;;17.10;54.39;101282.97;5032088;28;20036;-80
2022/05/01 11:12:53;;;;;;;11.60;8.52;;;;;;;17.21;54.15;101278.47;5032392;28;20032;-80
2022/05/01 11:15:26;;;;;;;13.60;9.55;;;;;;;17.61;54.63;101280.50;5032352;28;20037;-80
2022/05/01 11:17:52;;;;;;;11.98;9.48;;;;;;;17.73;54.05;101283.94;5040414;28;20056;-80
2022/05/01 11:20:21;;;;;;;15.38;9.70;;;;;;;17.96;53.15;101279.34;5039005;28;20080;-80
2022/05/01 11:22:47;;;;;;;13.05;9.73;;;;;;;17.84;53.78;101281.22;5032210;28;20033;-80
2022/05/01 11:25:31;;;;;;;13.63;10.15;;;;;;;17.61;52.90;101277.84;5033617;28;20452;-80
2022/05/01 11:27:57;;;;;;;15.15;10.57;;;;;;;17.29;54.84;101277.03;5042265;28;20390;-80
2022/05/01 11:30:31;;;;;;;15.73;10.63;;;;;;;17.91;53.79;101268.28;5054138;28;21685;-80
2022/05/01 11:33:10;;;;;;;18.50;11.35;;;;;;;18.07;52.54;101273.13;5056430;28;20490;-80
2022/05/01 11:36:01;;;;;;;16.27;9.93;;;;;;;18.26;51.63;101271.53;5044436;28;20490;-81
2022/05/01 11:38:40;;;;;;;13.18;8.82;;;;;;;18.02;53.58;101272.66;5032604;28;20045;-81
2022/05/01 11:41:06;;;;;;;14.23;10.45;;;;;;;17.65;52.68;101262.47;5031889;28;20029;-80
2022/05/01 11:43:34;;;;;;;14.25;11.85;;;;;;;17.83;52.22;101265.38;5041063;28;20033;-80
2022/05/01 11:46:01;;;;;;;14.13;10.80;;;;;;;17.62;54.02;101258.28;5040330;28;20026;-81
2022/05/01 11:48:27;;;;;;;15.50;11.43;;;;;;;17.64;52.77;101256.31;5049177;28;20376;-81
2022/05/01 11:50:58;;;;;;;14.85;11.77;;;;;;;17.51;52.43;101250.34;5051502;28;20028;-81